Keene Summit, California
Current Conditions -  °F | °C
As of 2:41 AM on Thursday 23 Oct 2014 (Local Time) from KUKI Reporting Station
Overcast Overcast  
Wind Chill: 61°   Ceiling: 2800
Heat Index: 61°   Visibility: 10mi
Dew Point: 53°   Wind: 0mph
Humidity: 75%   Direction: NA
Pressure: 30.05"   Gusts: NA
Location:  39.2991°N, 123.601°W
Report Text: KUKI 230941Z AUTO 00000KT 10SM BKN028 OVC044 16/12 A3005 RMK AO2 T01610117
Loading
Personal Weather Stations






























Interactive Weather Map
Tropical Storm Tracking
New forecast layout! Learn more

10-Day Weather Forecast

Advertisements
Track Severe Weather on mobile